Time;durP1;ratioP1;P1;durP2;ratioP2;P2;SDS_P1;SDS_P2;PMS_P1;PMS_P2;Temp;Humidity;BMP_temperature;BMP_pressure;BME280_temperature;BME280_humidity;BME280_pressure;Samples;Min_cycle;Max_cycle;Signal;HPM_P1;HPM_P2
2024/02/26 00:00:24;;;;;;;6.80;3.80;;;;;;;;;;5049561;28;20056;-57
2024/02/26 00:02:51;;;;;;;6.03;3.80;;;;;;;;;;5049749;28;20048;-56
2024/02/26 00:05:18;;;;;;;5.35;3.28;;;;;;;;;;5049307;28;20049;-52
2024/02/26 00:07:45;;;;;;;6.50;3.97;;;;;;;;;;5049406;28;20127;-57
2024/02/26 00:10:12;;;;;;;6.30;4.07;;;;;;;;;;5048179;28;20124;-61
2024/02/26 00:12:39;;;;;;;6.90;4.07;;;;;;;;;;5050220;28;20037;-57
2024/02/26 00:15:06;;;;;;;8.30;4.95;;;;;;;;;;5052104;28;20060;-60
2024/02/26 00:17:34;;;;;;;6.75;3.50;;;;;;;;;;5055012;28;20127;-53
2024/02/26 00:20:04;;;;;;;6.32;4.07;;;;;;;;;;5050362;28;20088;-51
2024/02/26 00:22:30;;;;;;;7.95;3.38;;;;;;;;;;5053587;28;20153;-54
2024/02/26 00:24:57;;;;;;;5.30;3.30;;;;;;;;;;5050044;28;20166;-55
2024/02/26 00:27:24;;;;;;;5.78;3.42;;;;;;;;;;5054755;28;20068;-55
2024/02/26 00:29:50;;;;;;;5.70;3.25;;;;;;;;;;5053492;28;20076;-57
2024/02/26 00:32:18;;;;;;;6.72;3.45;;;;;;;;;;5062933;28;20128;-55
2024/02/26 00:34:46;;;;;;;4.82;3.22;;;;;;;;;;5053056;28;20045;-57
2024/02/26 00:37:12;;;;;;;6.10;3.38;;;;;;;;;;5051977;28;20482;-55
2024/02/26 00:39:39;;;;;;;5.53;3.20;;;;;;;;;;5054879;28;20133;-56
2024/02/26 00:42:06;;;;;;;6.25;3.38;;;;;;;;;;5055784;28;20080;-55
2024/02/26 00:44:32;;;;;;;5.18;3.30;;;;;;;;;;5051161;28;20080;-54
2024/02/26 00:46:59;;;;;;;5.28;3.13;;;;;;;;;;5054235;28;20041;-57
2024/02/26 00:49:26;;;;;;;6.22;3.22;;;;;;;;;;5050966;28;20080;-51
2024/02/26 00:51:54;;;;;;;6.10;3.75;;;;;;;;;;5052822;28;20076;-56
2024/02/26 00:54:21;;;;;;;5.72;3.55;;;;;;;;;;5048384;28;20193;-56
2024/02/26 00:56:47;;;;;;;6.85;3.25;;;;;;;;;;5055190;28;20128;-57
2024/02/26 00:59:14;;;;;;;5.43;3.30;;;;;;;;;;5058400;28;20123;-58
2024/02/26 01:01:41;;;;;;;6.93;3.45;;;;;;;;;;5055113;28;20124;-54
2024/02/26 01:04:07;;;;;;;6.50;3.50;;;;;;;;;;5055387;28;20053;-55
2024/02/26 01:06:34;;;;;;;6.03;3.80;;;;;;;;;;5055214;28;20542;-56
2024/02/26 01:09:02;;;;;;;4.78;2.97;;;;;;;;;;5061373;28;20130;-52
2024/02/26 01:11:29;;;;;;;5.25;3.10;;;;;;;;;;5052345;28;20037;-55
2024/02/26 01:13:57;;;;;;;6.05;3.53;;;;;;;;;;5052437;28;20524;-55
2024/02/26 01:16:24;;;;;;;4.72;3.10;;;;;;;;;;5053559;28;20088;-52
2024/02/26 01:18:50;;;;;;;6.40;3.30;;;;;;;;;;5060324;28;20187;-54
2024/02/26 01:21:17;;;;;;;4.97;3.05;;;;;;;;;;5052720;28;20069;-55
2024/02/26 01:23:44;;;;;;;6.20;3.28;;;;;;;;;;5063079;28;20127;-54
2024/02/26 01:26:12;;;;;;;6.55;3.40;;;;;;;;;;5057932;28;20124;-55
2024/02/26 01:28:38;;;;;;;5.75;3.65;;;;;;;;;;5054086;28;20092;-56
2024/02/26 01:31:08;;;;;;;6.03;3.22;;;;;;;;;;5054783;28;20512;-54
2024/02/26 01:33:35;;;;;;;5.85;3.65;;;;;;;;;;5053783;28;20061;-55
2024/02/26 01:36:01;;;;;;;6.25;3.25;;;;;;;;;;5054654;28;20072;-56
2024/02/26 01:38:28;;;;;;;6.50;3.60;;;;;;;;;;5054644;28;20476;-55
2024/02/26 01:40:55;;;;;;;5.45;3.20;;;;;;;;;;5054256;28;20053;-56
2024/02/26 01:43:23;;;;;;;8.02;3.38;;;;;;;;;;5053775;28;20085;-53
2024/02/26 01:45:49;;;;;;;6.10;2.97;;;;;;;;;;5054408;28;20064;-55
2024/02/26 01:48:16;;;;;;;5.53;3.13;;;;;;;;;;5054186;28;20083;-52
2024/02/26 01:50:43;;;;;;;6.13;3.08;;;;;;;;;;5048993;28;20528;-55
2024/02/26 01:53:10;;;;;;;4.97;3.22;;;;;;;;;;5054174;28;20137;-54
2024/02/26 01:55:37;;;;;;;6.03;2.92;;;;;;;;;;5053570;28;20053;-55
2024/02/26 01:58:06;;;;;;;5.55;3.33;;;;;;;;;;5054300;28;20448;-53
2024/02/26 02:00:34;;;;;;;6.30;3.03;;;;;;;;;;5053674;28;20114;-55
2024/02/26 02:03:02;;;;;;;6.78;3.03;;;;;;;;;;5053776;28;20049;-56
2024/02/26 02:05:30;;;;;;;5.65;3.00;;;;;;;;;;5053234;28;20059;-55
2024/02/26 02:07:57;;;;;;;5.20;2.95;;;;;;;;;;5054147;28;20562;-51
2024/02/26 02:10:25;;;;;;;5.93;3.53;;;;;;;;;;5053837;28;20072;-55
2024/02/26 02:12:52;;;;;;;4.75;2.70;;;;;;;;;;5053722;28;20489;-56
2024/02/26 02:15:19;;;;;;;5.18;2.80;;;;;;;;;;5053461;28;20133;-56
2024/02/26 02:17:47;;;;;;;4.50;2.53;;;;;;;;;;5053930;28;20128;-55
2024/02/26 02:20:17;;;;;;;6.10;3.10;;;;;;;;;;5053057;28;20049;-53
2024/02/26 02:22:45;;;;;;;5.70;2.87;;;;;;;;;;5053453;28;20045;-55
2024/02/26 02:25:12;;;;;;;4.95;2.90;;;;;;;;;;5051768;28;20080;-55
2024/02/26 02:27:40;;;;;;;6.10;2.80;;;;;;;;;;5053244;28;20090;-58
2024/02/26 02:30:08;;;;;;;4.10;2.53;;;;;;;;;;5053698;28;20144;-56
2024/02/26 02:32:36;;;;;;;5.35;3.03;;;;;;;;;;5053196;28;20080;-55
2024/02/26 02:35:03;;;;;;;6.32;2.50;;;;;;;;;;5052956;28;20045;-57
2024/02/26 02:37:30;;;;;;;5.05;3.10;;;;;;;;;;5045505;28;20072;-53
2024/02/26 02:39:58;;;;;;;5.45;2.75;;;;;;;;;;5053313;28;20080;-54
2024/02/26 02:42:25;;;;;;;5.88;2.65;;;;;;;;;;5053431;28;20064;-58
2024/02/26 02:44:52;;;;;;;4.97;2.78;;;;;;;;;;5052810;28;20083;-56
2024/02/26 02:47:19;;;;;;;4.85;2.58;;;;;;;;;;5048696;28;20045;-54
2024/02/26 02:49:45;;;;;;;4.18;2.40;;;;;;;;;;5047847;28;20048;-56
2024/02/26 02:52:12;;;;;;;4.85;2.70;;;;;;;;;;5049209;28;20504;-55
2024/02/26 02:54:41;;;;;;;4.78;2.55;;;;;;;;;;5052375;28;20542;-54
2024/02/26 02:57:09;;;;;;;3.97;2.40;;;;;;;;;;5052643;28;20384;-55
2024/02/26 02:59:36;;;;;;;4.40;2.70;;;;;;;;;;5052848;28;20100;-54
2024/02/26 03:02:03;;;;;;;4.53;2.53;;;;;;;;;;5053062;28;20475;-54
2024/02/26 03:04:30;;;;;;;5.05;2.75;;;;;;;;;;5052458;28;20127;-52
2024/02/26 03:06:57;;;;;;;4.75;2.42;;;;;;;;;;5051646;28;20052;-56
2024/02/26 03:09:24;;;;;;;4.50;2.60;;;;;;;;;;5052495;28;20044;-52
2024/02/26 03:11:51;;;;;;;3.85;2.20;;;;;;;;;;5052699;28;20044;-54
2024/02/26 03:14:19;;;;;;;5.97;2.70;;;;;;;;;;5052211;28;20132;-52
2024/02/26 03:16:46;;;;;;;4.30;2.55;;;;;;;;;;5052486;28;20045;-50
2024/02/26 03:19:15;;;;;;;4.53;2.78;;;;;;;;;;5051464;28;20057;-57
2024/02/26 03:21:42;;;;;;;5.78;2.80;;;;;;;;;;5048916;28;20080;-57
2024/02/26 03:24:10;;;;;;;5.68;2.88;;;;;;;;;;5052032;28;20087;-56
2024/02/26 03:26:37;;;;;;;4.43;2.55;;;;;;;;;;5052451;28;20053;-54
2024/02/26 03:29:03;;;;;;;5.35;2.80;;;;;;;;;;5045904;28;20103;-57
2024/02/26 03:31:31;;;;;;;5.10;3.00;;;;;;;;;;5052082;28;20049;-57
2024/02/26 03:33:58;;;;;;;5.72;2.67;;;;;;;;;;5051907;28;20539;-54
2024/02/26 03:36:25;;;;;;;4.90;3.03;;;;;;;;;;5052025;28;20088;-55
2024/02/26 03:38:51;;;;;;;6.00;2.97;;;;;;;;;;5049396;28;20076;-55
2024/02/26 03:41:18;;;;;;;5.13;2.97;;;;;;;;;;5052012;28;20118;-53
2024/02/26 03:43:45;;;;;;;5.57;3.03;;;;;;;;;;5051325;28;20077;-52
2024/02/26 03:46:13;;;;;;;5.22;2.85;;;;;;;;;;5051952;28;20144;-54
2024/02/26 03:48:41;;;;;;;5.20;2.97;;;;;;;;;;5049302;28;20052;-55
2024/02/26 03:51:09;;;;;;;5.38;2.80;;;;;;;;;;5042367;28;20084;-53
2024/02/26 03:53:36;;;;;;;5.70;2.85;;;;;;;;;;5051548;28;20045;-53
2024/02/26 03:56:05;;;;;;;3.85;2.25;;;;;;;;;;5051907;28;20087;-57
2024/02/26 03:58:31;;;;;;;4.15;2.50;;;;;;;;;;5051848;28;20132;-53
2024/02/26 04:00:58;;;;;;;3.70;2.40;;;;;;;;;;5047397;28;20084;-56
2024/02/26 04:03:25;;;;;;;4.15;2.28;;;;;;;;;;5050978;28;20512;-56
2024/02/26 04:05:53;;;;;;;4.55;2.58;;;;;;;;;;5051716;28;20527;-55
2024/02/26 04:08:20;;;;;;;5.10;2.50;;;;;;;;;;5051524;28;20124;-55
2024/02/26 04:10:47;;;;;;;4.97;2.47;;;;;;;;;;5050945;28;20098;-56
2024/02/26 04:13:14;;;;;;;4.22;2.60;;;;;;;;;;5051499;28;20106;-57
2024/02/26 04:15:41;;;;;;;5.32;2.60;;;;;;;;;;5051220;28;20103;-55
2024/02/26 04:18:08;;;;;;;5.13;2.47;;;;;;;;;;5051336;28;20116;-56
2024/02/26 04:20:34;;;;;;;3.88;2.60;;;;;;;;;;5046472;28;20473;-55
2024/02/26 04:23:03;;;;;;;3.88;2.40;;;;;;;;;;5051215;28;20041;-53
2024/02/26 04:25:30;;;;;;;4.32;2.50;;;;;;;;;;5051351;28;20449;-53
2024/02/26 04:27:56;;;;;;;5.40;2.42;;;;;;;;;;5051350;28;20080;-55
2024/02/26 04:30:23;;;;;;;5.30;2.80;;;;;;;;;;5049717;28;20092;-54
2024/02/26 04:32:50;;;;;;;4.50;2.22;;;;;;;;;;5051221;28;20059;-52
2024/02/26 04:35:17;;;;;;;4.93;2.58;;;;;;;;;;5051009;28;20132;-58
2024/02/26 04:37:44;;;;;;;4.47;2.25;;;;;;;;;;5051429;28;20123;-56
2024/02/26 04:40:12;;;;;;;5.20;2.33;;;;;;;;;;5051214;28;20459;-53
2024/02/26 04:42:39;;;;;;;4.05;2.60;;;;;;;;;;5044727;28;20084;-57
2024/02/26 04:45:08;;;;;;;4.30;2.30;;;;;;;;;;5050643;28;20040;-55
2024/02/26 04:47:34;;;;;;;5.07;3.03;;;;;;;;;;5051322;28;20053;-51
2024/02/26 04:50:01;;;;;;;4.35;2.50;;;;;;;;;;5049661;28;20083;-52
2024/02/26 04:52:28;;;;;;;4.20;2.22;;;;;;;;;;5046219;28;20091;-55
2024/02/26 04:54:55;;;;;;;5.20;2.38;;;;;;;;;;5050751;28;20123;-53
2024/02/26 04:57:23;;;;;;;7.13;2.28;;;;;;;;;;5054617;28;20083;-57
2024/02/26 04:59:50;;;;;;;5.30;2.45;;;;;;;;;;5055012;28;20083;-54
2024/02/26 05:02:17;;;;;;;3.85;2.05;;;;;;;;;;5053703;28;20049;-56
2024/02/26 05:04:43;;;;;;;3.72;2.17;;;;;;;;;;5054879;28;20130;-54
2024/02/26 05:07:10;;;;;;;4.85;2.50;;;;;;;;;;5050888;28;20106;-59
2024/02/26 05:09:37;;;;;;;5.45;2.72;;;;;;;;;;5054834;28;20127;-57
2024/02/26 05:12:04;;;;;;;4.18;2.70;;;;;;;;;;5054746;28;20424;-55
2024/02/26 05:14:32;;;;;;;3.85;2.30;;;;;;;;;;5054416;28;20133;-56
2024/02/26 05:16:59;;;;;;;4.43;2.55;;;;;;;;;;5054888;28;20063;-54
2024/02/26 05:19:25;;;;;;;4.65;2.33;;;;;;;;;;5054830;28;20076;-52
2024/02/26 05:21:52;;;;;;;4.72;2.10;;;;;;;;;;5047925;28;20076;-55
2024/02/26 05:24:22;;;;;;;5.47;2.40;;;;;;;;;;5054220;28;20535;-56
2024/02/26 05:26:49;;;;;;;4.45;2.10;;;;;;;;;;5054581;28;20493;-54
2024/02/26 05:29:16;;;;;;;3.60;2.10;;;;;;;;;;5054181;28;20076;-57
2024/02/26 05:31:44;;;;;;;4.15;2.45;;;;;;;;;;5054598;28;20049;-56
2024/02/26 05:34:11;;;;;;;4.57;2.03;;;;;;;;;;5047826;28;20528;-56
2024/02/26 05:36:38;;;;;;;3.78;2.00;;;;;;;;;;5054577;28;20132;-57
2024/02/26 05:39:05;;;;;;;5.15;2.10;;;;;;;;;;5054642;28;20508;-55
2024/02/26 05:41:31;;;;;;;5.13;2.30;;;;;;;;;;5054489;28;20473;-54
2024/02/26 05:43:59;;;;;;;5.88;2.13;;;;;;;;;;5054181;28;20081;-55
2024/02/26 05:46:26;;;;;;;6.70;3.45;;;;;;;;;;5054670;28;20057;-53
2024/02/26 05:48:55;;;;;;;4.57;2.25;;;;;;;;;;5054544;28;20148;-54
2024/02/26 05:51:21;;;;;;;4.65;2.50;;;;;;;;;;5054069;28;20076;-58
2024/02/26 05:53:53;;;;;;;4.63;2.30;;;;;;;;;;5053337;28;20132;-56
2024/02/26 05:56:20;;;;;;;6.18;2.67;;;;;;;;;;5054343;28;20060;-56
2024/02/26 05:58:47;;;;;;;5.15;2.55;;;;;;;;;;5054141;28;20107;-53
2024/02/26 06:01:14;;;;;;;5.35;2.47;;;;;;;;;;5053534;28;20083;-54
2024/02/26 06:03:41;;;;;;;5.53;2.47;;;;;;;;;;5045504;28;20072;-55
2024/02/26 06:06:09;;;;;;;4.50;2.50;;;;;;;;;;5051656;28;20084;-58
2024/02/26 06:08:35;;;;;;;6.05;2.50;;;;;;;;;;5054067;28;20140;-55
2024/02/26 06:11:06;;;;;;;7.20;2.58;;;;;;;;;;5054225;28;20080;-57
2024/02/26 06:13:33;;;;;;;5.57;2.63;;;;;;;;;;5053727;28;20087;-55
2024/02/26 06:16:00;;;;;;;4.88;2.60;;;;;;;;;;5049702;28;20132;-57
2024/02/26 06:18:26;;;;;;;5.10;3.00;;;;;;;;;;5048696;28;20080;-52
2024/02/26 06:20:53;;;;;;;5.20;3.03;;;;;;;;;;5053859;28;20503;-53
2024/02/26 06:23:21;;;;;;;5.45;2.72;;;;;;;;;;5051699;28;20080;-55
2024/02/26 06:25:48;;;;;;;4.60;2.63;;;;;;;;;;5047224;28;20044;-55
2024/02/26 06:28:15;;;;;;;7.07;2.75;;;;;;;;;;5053198;28;20088;-53
2024/02/26 06:30:42;;;;;;;5.13;3.00;;;;;;;;;;5054197;28;20080;-58
2024/02/26 06:33:09;;;;;;;6.50;3.00;;;;;;;;;;5041439;28;20125;-58
2024/02/26 06:35:35;;;;;;;6.70;2.85;;;;;;;;;;5052168;28;20683;-52
2024/02/26 06:38:02;;;;;;;6.13;2.90;;;;;;;;;;5054006;28;20118;-52
2024/02/26 06:40:30;;;;;;;6.53;2.70;;;;;;;;;;5053735;28;20501;-56
2024/02/26 06:42:57;;;;;;;5.63;2.47;;;;;;;;;;5053111;28;20083;-54
2024/02/26 06:45:23;;;;;;;5.57;2.90;;;;;;;;;;5047541;28;20046;-55
2024/02/26 06:47:50;;;;;;;5.53;2.67;;;;;;;;;;5049892;28;20081;-51
2024/02/26 06:50:17;;;;;;;7.10;3.05;;;;;;;;;;5042996;28;20079;-55
2024/02/26 06:52:45;;;;;;;7.57;3.13;;;;;;;;;;5050005;28;20073;-51
2024/02/26 06:55:12;;;;;;;9.65;3.13;;;;;;;;;;5053093;28;20507;-56
2024/02/26 06:57:40;;;;;;;7.82;3.13;;;;;;;;;;5051830;28;20106;-57
2024/02/26 07:00:07;;;;;;;6.70;2.85;;;;;;;;;;5052828;28;20102;-52
2024/02/26 07:02:34;;;;;;;9.38;3.67;;;;;;;;;;5051691;28;20081;-55
2024/02/26 07:05:01;;;;;;;7.10;3.05;;;;;;;;;;5051904;28;20080;-54
2024/02/26 07:07:27;;;;;;;9.70;3.20;;;;;;;;;;5051582;28;20088;-52
2024/02/26 07:09:54;;;;;;;7.15;3.40;;;;;;;;;;5052919;28;20129;-54
2024/02/26 07:12:21;;;;;;;7.07;3.75;;;;;;;;;;5052064;28;20049;-54
2024/02/26 07:14:49;;;;;;;8.77;3.42;;;;;;;;;;5052540;28;20424;-54
2024/02/26 07:17:17;;;;;;;6.82;3.08;;;;;;;;;;5044255;28;20134;-54
2024/02/26 07:19:43;;;;;;;8.25;3.70;;;;;;;;;;5048776;28;20041;-51
2024/02/26 07:22:10;;;;;;;8.45;3.38;;;;;;;;;;5048175;28;20073;-51
2024/02/26 07:24:37;;;;;;;6.40;3.38;;;;;;;;;;5050738;28;20094;-55
2024/02/26 07:27:04;;;;;;;6.95;3.17;;;;;;;;;;5051105;28;20421;-54
2024/02/26 07:29:31;;;;;;;6.53;3.50;;;;;;;;;;5052525;28;20088;-50
2024/02/26 07:31:59;;;;;;;7.82;3.60;;;;;;;;;;5053874;28;20508;-54
2024/02/26 07:34:28;;;;;;;9.32;3.78;;;;;;;;;;5053917;28;20416;-56
2024/02/26 07:36:55;;;;;;;8.43;4.15;;;;;;;;;;5051829;28;20041;-58
2024/02/26 07:39:22;;;;;;;6.95;3.47;;;;;;;;;;5047052;28;20084;-51
2024/02/26 07:41:51;;;;;;;5.60;2.90;;;;;;;;;;5056963;28;20455;-53
2024/02/26 07:44:18;;;;;;;6.22;3.13;;;;;;;;;;5057202;28;20500;-57
2024/02/26 07:46:45;;;;;;;6.50;3.58;;;;;;;;;;5056945;28;20120;-55
2024/02/26 07:49:13;;;;;;;7.55;4.38;;;;;;;;;;5057216;28;20068;-56
2024/02/26 07:51:39;;;;;;;7.03;3.75;;;;;;;;;;5045084;28;20077;-51
2024/02/26 07:54:06;;;;;;;8.20;3.72;;;;;;;;;;5044178;28;20075;-53
2024/02/26 07:56:36;;;;;;;6.85;3.30;;;;;;;;;;5043323;28;20085;-54
2024/02/26 07:59:02;;;;;;;7.45;3.70;;;;;;;;;;5050067;28;20132;-55
2024/02/26 08:01:29;;;;;;;10.77;4.75;;;;;;;;;;5050855;28;20084;-52
2024/02/26 08:03:56;;;;;;;8.65;4.72;;;;;;;;;;5052422;28;20103;-55
2024/02/26 08:06:25;;;;;;;8.50;3.85;;;;;;;;;;5053046;28;20084;-51
2024/02/26 08:08:53;;;;;;;7.25;3.83;;;;;;;;;;5053210;28;20044;-54
2024/02/26 08:11:20;;;;;;;7.47;3.40;;;;;;;;;;5056720;28;20048;-57
2024/02/26 08:13:47;;;;;;;4.82;3.00;;;;;;;;;;5059793;28;20511;-52
2024/02/26 08:16:13;;;;;;;9.77;3.25;;;;;;;;;;5052241;28;20069;-55
2024/02/26 08:18:40;;;;;;;6.40;3.33;;;;;;;;;;5054818;28;20056;-55
2024/02/26 08:21:08;;;;;;;5.65;3.15;;;;;;;;;;5053549;28;20049;-54
2024/02/26 08:23:36;;;;;;;9.35;4.00;;;;;;;;;;5055072;28;20053;-54
2024/02/26 08:26:04;;;;;;;6.25;3.05;;;;;;;;;;5053724;28;20053;-54
2024/02/26 08:28:30;;;;;;;4.97;3.30;;;;;;;;;;5045519;28;20048;-54
2024/02/26 08:30:57;;;;;;;6.78;3.15;;;;;;;;;;5048924;28;20055;-55
2024/02/26 08:33:24;;;;;;;5.65;2.80;;;;;;;;;;5050758;28;20152;-57
2024/02/26 08:35:51;;;;;;;6.88;3.15;;;;;;;;;;5054390;28;20455;-56
2024/02/26 08:38:17;;;;;;;5.68;3.10;;;;;;;;;;5057174;28;20076;-56
2024/02/26 08:40:46;;;;;;;8.30;3.00;;;;;;;;;;5056813;28;20213;-51
2024/02/26 08:43:12;;;;;;;7.75;4.57;;;;;;;;;;5054505;28;20063;-55
2024/02/26 08:45:39;;;;;;;6.93;3.33;;;;;;;;;;5059200;28;20114;-53
2024/02/26 08:48:07;;;;;;;6.15;2.97;;;;;;;;;;5052475;28;20098;-63
2024/02/26 08:50:34;;;;;;;5.18;3.20;;;;;;;;;;5045239;28;20075;-61
2024/02/26 08:53:01;;;;;;;7.00;3.75;;;;;;;;;;5053245;28;20486;-56
2024/02/26 08:55:28;;;;;;;6.68;3.10;;;;;;;;;;5051232;28;20057;-55
2024/02/26 08:57:56;;;;;;;8.05;3.58;;;;;;;;;;5049535;28;20072;-60
2024/02/26 09:00:23;;;;;;;7.53;3.42;;;;;;;;;;5048588;28;20131;-60
2024/02/26 09:02:49;;;;;;;6.63;2.92;;;;;;;;;;5049168;28;20077;-56
2024/02/26 09:05:16;;;;;;;6.45;3.20;;;;;;;;;;5049099;28;20091;-55
2024/02/26 09:07:43;;;;;;;5.93;4.40;;;;;;;;;;5049735;28;20049;-55
2024/02/26 09:10:10;;;;;;;5.60;3.20;;;;;;;;;;5049595;28;20079;-52
2024/02/26 09:12:37;;;;;;;6.57;3.88;;;;;;;;;;5049419;28;20045;-52
2024/02/26 09:15:07;;;;;;;8.45;3.67;;;;;;;;;;5048946;28;20045;-57
2024/02/26 09:17:34;;;;;;;5.95;3.38;;;;;;;;;;5051369;28;20132;-54
2024/02/26 09:20:00;;;;;;;10.00;4.35;;;;;;;;;;5043594;28;20046;-59
2024/02/26 09:22:27;;;;;;;6.45;3.40;;;;;;;;;;5054560;28;20047;-55
2024/02/26 09:24:54;;;;;;;6.93;3.40;;;;;;;;;;5048315;28;20083;-55
2024/02/26 09:27:21;;;;;;;4.40;2.72;;;;;;;;;;5041541;28;20084;-57
2024/02/26 09:29:47;;;;;;;13.77;2.92;;;;;;;;;;5038071;28;20037;-58
2024/02/26 09:32:16;;;;;;;5.18;3.30;;;;;;;;;;5046333;28;20085;-58
2024/02/26 09:34:42;;;;;;;6.07;2.90;;;;;;;;;;5044726;28;20053;-53
2024/02/26 09:37:09;;;;;;;6.05;2.92;;;;;;;;;;5031051;28;20115;-55
2024/02/26 09:39:36;;;;;;;6.00;2.88;;;;;;;;;;5038815;28;20207;-55
2024/02/26 09:42:06;;;;;;;6.13;2.65;;;;;;;;;;5031837;28;20061;-57
2024/02/26 09:44:38;;;;;;;5.53;2.60;;;;;;;;;;5035081;28;20085;-51
2024/02/26 09:47:06;;;;;;;11.35;3.10;;;;;;;;;;5034769;28;20057;-53
2024/02/26 09:49:35;;;;;;;7.82;3.00;;;;;;;;;;5038679;28;20430;-54
2024/02/26 09:52:04;;;;;;;10.52;2.72;;;;;;;;;;5039683;28;20049;-56
2024/02/26 09:54:31;;;;;;;6.68;2.88;;;;;;;;;;5037413;28;20053;-56
2024/02/26 09:57:01;;;;;;;6.18;3.05;;;;;;;;;;5040440;28;20079;-56
2024/02/26 09:59:28;;;;;;;8.65;3.22;;;;;;;;;;5049742;28;20040;-56
2024/02/26 10:01:56;;;;;;;7.25;2.78;;;;;;;;;;5045004;28;20073;-55
2024/02/26 10:04:24;;;;;;;6.25;3.00;;;;;;;;;;5052065;28;20045;-55
2024/02/26 10:06:53;;;;;;;6.05;2.47;;;;;;;;;;5046293;28;20041;-62
2024/02/26 10:09:21;;;;;;;5.05;2.53;;;;;;;;;;5051217;28;20075;-53
2024/02/26 10:11:50;;;;;;;4.28;2.38;;;;;;;;;;5056015;28;20053;-53
2024/02/26 10:14:17;;;;;;;8.32;2.85;;;;;;;;;;5056868;28;20045;-59
2024/02/26 10:16:44;;;;;;;4.07;2.40;;;;;;;;;;5053494;28;20519;-54
2024/02/26 10:19:26;;;;;;;5.25;2.58;;;;;;;;;;5056937;28;20083;-56
2024/02/26 10:21:57;;;;;;;4.53;2.47;;;;;;;;;;5059307;28;20689;-55
2024/02/26 10:24:25;;;;;;;4.63;2.30;;;;;;;;;;5054918;28;20046;-54
2024/02/26 10:26:52;;;;;;;4.15;2.30;;;;;;;;;;5058130;28;20047;-56
2024/02/26 10:29:19;;;;;;;4.85;2.42;;;;;;;;;;5057209;28;20747;-53
2024/02/26 10:31:46;;;;;;;6.32;2.83;;;;;;;;;;5053923;28;20139;-62
2024/02/26 10:34:13;;;;;;;4.53;2.40;;;;;;;;;;5054447;28;20076;-54
2024/02/26 10:36:41;;;;;;;4.72;2.10;;;;;;;;;;5050736;28;20059;-54
2024/02/26 10:39:09;;;;;;;5.95;2.47;;;;;;;;;;5050892;28;20127;-58
2024/02/26 10:41:35;;;;;;;4.70;2.45;;;;;;;;;;5057195;28;20052;-56
2024/02/26 10:44:03;;;;;;;4.88;1.80;;;;;;;;;;5056766;28;20068;-56
2024/02/26 10:46:29;;;;;;;5.15;2.03;;;;;;;;;;5055454;28;20474;-57
2024/02/26 10:48:57;;;;;;;7.38;2.50;;;;;;;;;;5052316;28;20076;-50
2024/02/26 10:51:28;;;;;;;4.68;2.08;;;;;;;;;;5054274;28;20098;-53
2024/02/26 10:53:58;;;;;;;4.15;2.30;;;;;;;;;;5052894;28;20504;-60
2024/02/26 10:56:28;;;;;;;4.95;1.98;;;;;;;;;;5054307;28;20041;-55
2024/02/26 10:58:56;;;;;;;4.77;2.17;;;;;;;;;;5057396;28;20091;-56
2024/02/26 11:01:25;;;;;;;6.47;2.10;;;;;;;;;;5055721;28;20169;-55
2024/02/26 11:03:52;;;;;;;6.07;3.22;;;;;;;;;;5054631;28;20045;-57
2024/02/26 11:06:20;;;;;;;3.65;2.03;;;;;;;;;;5053810;28;20095;-55
2024/02/26 11:08:50;;;;;;;4.72;1.90;;;;;;;;;;5044930;28;20047;-54
2024/02/26 11:11:17;;;;;;;5.00;1.90;;;;;;;;;;5050528;28;20037;-59
2024/02/26 11:13:50;;;;;;;3.72;1.80;;;;;;;;;;5050086;28;20084;-52
2024/02/26 11:16:19;;;;;;;3.92;1.73;;;;;;;;;;5057394;28;20055;-53
2024/02/26 11:18:48;;;;;;;2.88;1.67;;;;;;;;;;5060117;28;20654;-54
2024/02/26 11:21:17;;;;;;;5.05;2.00;;;;;;;;;;5057816;28;20534;-54
2024/02/26 11:23:44;;;;;;;5.38;2.30;;;;;;;;;;5049720;28;20130;-57
2024/02/26 11:26:12;;;;;;;4.18;2.03;;;;;;;;;;5050343;28;20084;-55
2024/02/26 11:28:39;;;;;;;3.45;1.65;;;;;;;;;;5043454;28;20076;-56
2024/02/26 11:31:08;;;;;;;4.63;1.88;;;;;;;;;;5041931;28;20073;-52
2024/02/26 11:33:36;;;;;;;5.38;2.00;;;;;;;;;;5037402;28;20128;-53
2024/02/26 11:36:03;;;;;;;3.95;1.80;;;;;;;;;;5046637;28;20408;-58
2024/02/26 11:38:30;;;;;;;4.25;1.90;;;;;;;;;;5043891;28;20128;-56
2024/02/26 11:40:57;;;;;;;3.83;1.65;;;;;;;;;;5039083;28;20076;-51
2024/02/26 11:43:24;;;;;;;3.00;1.48;;;;;;;;;;5040882;28;20047;-53
2024/02/26 11:45:52;;;;;;;4.03;1.75;;;;;;;;;;5035328;28;20045;-59
2024/02/26 11:48:25;;;;;;;5.63;2.20;;;;;;;;;;5040785;28;20041;-60
2024/02/26 11:50:53;;;;;;;6.88;1.80;;;;;;;;;;5035186;28;20041;-59
2024/02/26 11:53:25;;;;;;;2.83;1.60;;;;;;;;;;5034928;28;20044;-58
2024/02/26 11:56:29;;;;;;;3.05;1.40;;;;;;;;;;5035944;28;20523;-59
2024/02/26 11:58:58;;;;;;;3.30;1.50;;;;;;;;;;5040755;28;20041;-54
2024/02/26 12:01:42;;;;;;;2.75;1.23;;;;;;;;;;5035610;28;20083;-56
2024/02/26 12:04:14;;;;;;;2.75;1.45;;;;;;;;;;5043966;28;20119;-56
2024/02/26 12:06:46;;;;;;;2.92;1.50;;;;;;;;;;5049359;28;20047;-56
2024/02/26 12:09:14;;;;;;;4.05;1.60;;;;;;;;;;5044131;28;20132;-55
2024/02/26 12:11:43;;;;;;;3.58;1.75;;;;;;;;;;5042832;28;20049;-61
2024/02/26 12:14:10;;;;;;;3.65;1.20;;;;;;;;;;5034305;28;20048;-55
2024/02/26 12:16:38;;;;;;;3.83;1.48;;;;;;;;;;5037209;28;20087;-58
2024/02/26 12:19:10;;;;;;;3.30;1.88;;;;;;;;;;5049363;28;20052;-56
2024/02/26 12:21:38;;;;;;;3.28;1.58;;;;;;;;;;5057676;28;20106;-59
2024/02/26 12:24:12;;;;;;;3.13;1.50;;;;;;;;;;5049023;28;20095;-61
2024/02/26 12:26:38;;;;;;;4.60;1.90;;;;;;;;;;5049170;28;20075;-56
2024/02/26 12:29:05;;;;;;;2.85;1.27;;;;;;;;;;5054478;28;20048;-61
2024/02/26 12:31:32;;;;;;;3.15;1.70;;;;;;;;;;5050731;28;20084;-57
2024/02/26 12:33:59;;;;;;;3.58;1.83;;;;;;;;;;5049052;28;20480;-58
2024/02/26 12:36:28;;;;;;;5.03;1.58;;;;;;;;;;5053896;28;20454;-59
2024/02/26 12:38:54;;;;;;;2.95;1.58;;;;;;;;;;5048608;28;20199;-57
2024/02/26 12:41:22;;;;;;;3.50;1.75;;;;;;;;;;5049265;28;20072;-55
2024/02/26 12:43:49;;;;;;;3.22;1.67;;;;;;;;;;5053157;28;20124;-58
2024/02/26 12:46:16;;;;;;;3.95;2.20;;;;;;;;;;5049365;28;20219;-62
2024/02/26 12:48:44;;;;;;;5.05;2.97;;;;;;;;;;5052290;28;20152;-57
2024/02/26 12:51:11;;;;;;;4.65;2.63;;;;;;;;;;5056273;28;20473;-59
2024/02/26 12:53:39;;;;;;;4.78;2.80;;;;;;;;;;5048712;28;20040;-55
2024/02/26 12:56:08;;;;;;;3.90;2.38;;;;;;;;;;5052964;28;20059;-56
2024/02/26 12:58:38;;;;;;;3.92;2.05;;;;;;;;;;5050175;28;20094;-59
2024/02/26 13:01:05;;;;;;;6.60;2.50;;;;;;;;;;5050161;28;20049;-54
2024/02/26 13:03:32;;;;;;;4.10;2.13;;;;;;;;;;5049578;28;20083;-56
2024/02/26 13:05:59;;;;;;;3.58;1.90;;;;;;;;;;5050957;28;20164;-63
2024/02/26 13:08:26;;;;;;;3.67;2.13;;;;;;;;;;5050923;28;20489;-57
2024/02/26 13:10:54;;;;;;;4.43;2.33;;;;;;;;;;5051522;28;20126;-61
2024/02/26 13:13:21;;;;;;;5.97;3.35;;;;;;;;;;5058155;28;20084;-57
2024/02/26 13:15:48;;;;;;;5.43;2.78;;;;;;;;;;5048924;28;20076;-56
2024/02/26 13:18:15;;;;;;;4.97;2.88;;;;;;;;;;5056038;28;20461;-58
2024/02/26 13:20:42;;;;;;;3.47;1.90;;;;;;;;;;5056864;28;20397;-57
2024/02/26 13:23:12;;;;;;;5.88;2.63;;;;;;;;;;5056974;28;20045;-56
2024/02/26 13:25:40;;;;;;;4.10;1.90;;;;;;;;;;5052547;28;20073;-58
2024/02/26 13:28:10;;;;;;;4.57;2.45;;;;;;;;;;5052688;28;20052;-57
2024/02/26 13:30:36;;;;;;;4.30;1.83;;;;;;;;;;5047172;28;20053;-58
2024/02/26 13:33:10;;;;;;;3.17;1.70;;;;;;;;;;5039767;28;20053;-53
2024/02/26 13:35:38;;;;;;;2.95;1.65;;;;;;;;;;5046840;28;20080;-58
2024/02/26 13:38:05;;;;;;;2.70;1.23;;;;;;;;;;5049622;28;20049;-56
2024/02/26 13:40:32;;;;;;;2.25;0.90;;;;;;;;;;5053244;28;20052;-54
2024/02/26 13:42:59;;;;;;;3.00;1.23;;;;;;;;;;5052606;28;20099;-61
2024/02/26 13:45:27;;;;;;;2.05;1.00;;;;;;;;;;5054522;28;20532;-57
2024/02/26 13:47:54;;;;;;;1.45;0.80;;;;;;;;;;5060085;28;20049;-56
2024/02/26 13:50:23;;;;;;;3.65;1.00;;;;;;;;;;5047193;28;20045;-56
2024/02/26 13:52:53;;;;;;;2.70;1.30;;;;;;;;;;5054347;28;20424;-58
2024/02/26 13:55:20;;;;;;;2.83;1.55;;;;;;;;;;5047015;28;20103;-60
2024/02/26 13:57:47;;;;;;;3.03;1.30;;;;;;;;;;5050757;28;20551;-54
2024/02/26 14:00:15;;;;;;;1.67;1.13;;;;;;;;;;5052205;28;20048;-55
2024/02/26 14:02:43;;;;;;;1.42;0.90;;;;;;;;;;5055099;28;20517;-57
2024/02/26 14:05:10;;;;;;;2.70;1.00;;;;;;;;;;5058372;28;20166;-60
2024/02/26 14:07:37;;;;;;;4.32;2.20;;;;;;;;;;5059843;28;20089;-58
2024/02/26 14:10:03;;;;;;;3.22;1.00;;;;;;;;;;5053659;28;20125;-55
2024/02/26 14:12:30;;;;;;;2.75;1.27;;;;;;;;;;5050345;28;20095;-60
2024/02/26 14:15:00;;;;;;;2.63;1.30;;;;;;;;;;5052589;28;20045;-59
2024/02/26 14:17:26;;;;;;;2.67;1.30;;;;;;;;;;5050494;28;20047;-58
2024/02/26 14:19:55;;;;;;;5.28;1.50;;;;;;;;;;5051645;28;20071;-58
2024/02/26 14:22:21;;;;;;;3.45;1.38;;;;;;;;;;5054908;28;20124;-57
2024/02/26 14:24:48;;;;;;;3.25;1.50;;;;;;;;;;5060396;28;20073;-57
2024/02/26 14:27:15;;;;;;;3.75;1.70;;;;;;;;;;5052985;28;20107;-60
2024/02/26 14:29:43;;;;;;;2.88;1.45;;;;;;;;;;5053122;28;20041;-56
2024/02/26 14:32:09;;;;;;;4.18;1.55;;;;;;;;;;5051477;28;20083;-57
2024/02/26 14:34:37;;;;;;;3.22;1.60;;;;;;;;;;5048266;28;20635;-57
2024/02/26 14:37:05;;;;;;;3.80;1.63;;;;;;;;;;5051098;28;20407;-58
2024/02/26 14:39:32;;;;;;;3.53;1.58;;;;;;;;;;5056194;28;20041;-63
2024/02/26 14:41:59;;;;;;;3.70;1.58;;;;;;;;;;5054834;28;20373;-63
2024/02/26 14:44:26;;;;;;;4.20;1.42;;;;;;;;;;5057855;28;20069;-61